Time;durP1;ratioP1;P1;durP2;ratioP2;P2;SDS_P1;SDS_P2;PMS_P1;PMS_P2;Temp;Humidity;BMP_temperature;BMP_pressure;BME280_temperature;BME280_humidity;BME280_pressure;Samples;Min_cycle;Max_cycle;Signal;HPM_P1;HPM_P2
2023/09/19 00:02:06;;;;;;;6.60;4.30;;;19.90;99.90;;;;;;5076271;28;20194;-79
2023/09/19 00:04:32;;;;;;;5.87;4.00;;;19.80;99.90;;;;;;5076808;28;20171;-81
2023/09/19 00:06:59;;;;;;;7.37;4.60;;;19.80;99.90;;;;;;5075945;28;20171;-79
2023/09/19 00:09:27;;;;;;;4.80;4.00;;;19.80;99.90;;;;;;5092788;28;20166;-79
2023/09/19 00:11:53;;;;;;;6.03;4.63;;;19.70;99.90;;;;;;5092744;28;20207;-79
2023/09/19 00:14:20;;;;;;;5.70;4.10;;;19.70;99.90;;;;;;5093474;28;20155;-80
2023/09/19 00:16:49;;;;;;;5.87;3.87;;;19.70;99.90;;;;;;5087797;28;20250;-75
2023/09/19 00:19:16;;;;;;;6.60;3.60;;;19.70;99.90;;;;;;5076884;28;20178;-79
2023/09/19 00:21:43;;;;;;;5.10;3.83;;;19.70;99.90;;;;;;5076877;28;20178;-78
2023/09/19 00:24:09;;;;;;;6.23;3.20;;;19.70;99.90;;;;;;5061767;28;20167;-77
2023/09/19 00:26:34;;;;;;;3.90;3.50;;;19.70;99.90;;;;;;5085795;28;20179;-76
2023/09/19 00:29:04;;;;;;;4.87;3.07;;;19.70;99.90;;;;;;5075951;28;20198;-78
2023/09/19 00:31:30;;;;;;;3.40;3.10;;;19.70;99.90;;;;;;5075853;28;20259;-77
2023/09/19 00:33:59;;;;;;;3.47;3.17;;;19.70;99.90;;;;;;5076051;28;20175;-76
2023/09/19 00:36:25;;;;;;;5.90;3.17;;;19.70;99.90;;;;;;5080148;28;20295;-77
2023/09/19 00:38:51;;;;;;;5.83;3.10;;;19.70;99.90;;;;;;5080097;28;20212;-77
2023/09/19 00:41:17;;;;;;;3.73;3.13;;;19.70;99.90;;;;;;5089821;28;20179;-79
2023/09/19 00:43:43;;;;;;;8.20;3.50;;;19.70;99.90;;;;;;5068521;28;20250;-79
2023/09/19 00:46:09;;;;;;;4.77;3.40;;;19.60;99.90;;;;;;5094023;28;20183;-79
2023/09/19 00:48:43;;;;;;;4.80;3.60;;;19.60;99.90;;;;;;5089659;28;20271;-76
2023/09/19 00:51:10;;;;;;;4.73;3.40;;;19.60;99.90;;;;;;5089043;28;20205;-78
2023/09/19 00:53:36;;;;;;;4.50;3.83;;;19.50;99.90;;;;;;5084242;28;20179;-76
2023/09/19 00:56:07;;;;;;;6.43;3.83;;;19.50;99.90;;;;;;5075593;28;20258;-79
2023/09/19 00:58:35;;;;;;;4.47;3.50;;;19.50;99.90;;;;;;5075670;28;20155;-77
2023/09/19 01:01:02;;;;;;;3.70;3.40;;;19.50;99.90;;;;;;5080848;28;20175;-79
2023/09/19 01:03:29;;;;;;;6.10;3.50;;;19.40;99.90;;;;;;5091221;28;20194;-77
2023/09/19 01:05:55;;;;;;;5.33;3.43;;;19.40;99.90;;;;;;5077240;28;20178;-77
2023/09/19 01:08:20;;;;;;;4.57;3.07;;;19.40;99.90;;;;;;5076257;28;20250;-77
2023/09/19 01:10:52;;;;;;;3.97;3.40;;;19.40;99.90;;;;;;5074919;28;20211;-79
2023/09/19 01:13:21;;;;;;;5.47;3.30;;;19.40;99.90;;;;;;5075093;28;20151;-77
2023/09/19 01:16:24;;;;;;;3.23;3.03;;;19.40;99.90;;;;;;5074859;28;20167;-77
2023/09/19 01:19:21;;;;;;;5.20;3.30;;;19.40;99.90;;;;;;5075290;28;20227;-77
2023/09/19 01:21:55;;;;;;;4.10;3.17;;;19.40;99.90;;;;;;5074618;28;20171;-77
2023/09/19 01:24:55;;;;;;;3.00;2.80;;;19.40;99.90;;;;;;5074805;28;20745;-77
2023/09/19 01:27:39;;;;;;;3.33;2.87;;;19.40;99.90;;;;;;5075333;28;20601;-77
2023/09/19 01:30:14;;;;;;;2.67;2.33;;;19.40;99.90;;;;;;5074896;28;20159;-76
2023/09/19 01:32:41;;;;;;;5.73;3.10;;;19.40;99.90;;;;;;5074612;28;20234;-76
2023/09/19 01:35:12;;;;;;;2.97;2.70;;;19.30;99.90;;;;;;5074970;28;20182;-77
2023/09/19 01:37:38;;;;;;;2.67;2.47;;;19.40;99.90;;;;;;5073550;28;20174;-77
2023/09/19 01:40:18;;;;;;;3.47;2.57;;;19.40;99.90;;;;;;5075012;28;20174;-78
2023/09/19 01:43:05;;;;;;;4.23;2.60;;;19.50;99.90;;;;;;5074937;28;20151;-77
2023/09/19 01:45:40;;;;;;;2.43;2.33;;;19.50;99.90;;;;;;5075310;28;20159;-77
2023/09/19 01:48:20;;;;;;;4.33;3.23;;;19.50;99.90;;;;;;5074639;28;20245;-75
2023/09/19 01:51:06;;;;;;;2.63;2.40;;;19.60;99.90;;;;;;5074460;28;20199;-77
2023/09/19 01:54:02;;;;;;;6.63;2.77;;;19.60;99.90;;;;;;5056337;28;20175;-76
2023/09/19 01:56:38;;;;;;;2.60;2.33;;;19.50;99.90;;;;;;5067774;28;20268;-77
2023/09/19 01:59:16;;;;;;;3.70;2.33;;;19.50;99.90;;;;;;5074421;28;20162;-78
2023/09/19 02:01:44;;;;;;;5.17;2.90;;;19.60;99.90;;;;;;5075388;28;20556;-79
2023/09/19 02:04:10;;;;;;;3.13;2.50;;;19.60;99.90;;;;;;5082136;28;20163;-78
2023/09/19 02:06:40;;;;;;;3.33;3.03;;;19.60;99.90;;;;;;5080430;28;20183;-78
2023/09/19 02:09:06;;;;;;;3.67;2.50;;;19.60;99.90;;;;;;5081079;28;20163;-77
2023/09/19 02:11:32;;;;;;;2.97;2.67;;;19.60;99.90;;;;;;5090024;28;20206;-78
2023/09/19 02:13:59;;;;;;;3.10;2.90;;;19.60;99.90;;;;;;5078201;28;20167;-77
2023/09/19 02:16:25;;;;;;;3.20;2.60;;;19.50;99.90;;;;;;5078190;28;20708;-76
2023/09/19 02:18:51;;;;;;;2.80;2.60;;;19.50;99.90;;;;;;5077940;28;20528;-78
2023/09/19 02:21:18;;;;;;;5.27;2.57;;;19.50;99.90;;;;;;5078209;28;20218;-77
2023/09/19 02:23:47;;;;;;;5.23;2.60;;;19.50;99.90;;;;;;5078839;28;20178;-77
2023/09/19 02:26:13;;;;;;;2.60;2.40;;;19.50;99.90;;;;;;5079510;28;20262;-79
2023/09/19 02:28:39;;;;;;;5.40;2.37;;;19.50;99.90;;;;;;5069393;28;20261;-78
2023/09/19 02:31:05;;;;;;;2.87;2.30;;;19.40;99.90;;;;;;5087400;28;20685;-77
2023/09/19 02:33:32;;;;;;;2.47;2.27;;;19.50;99.90;;;;;;5079898;28;20167;-78
2023/09/19 02:35:59;;;;;;;4.13;1.87;;;19.50;99.90;;;;;;5080393;28;20708;-77
2023/09/19 02:38:25;;;;;;;2.17;1.60;;;19.50;99.90;;;;;;5092094;28;20262;-78
2023/09/19 02:40:52;;;;;;;1.93;1.63;;;19.50;99.90;;;;;;5092343;28;20206;-79
2023/09/19 02:43:19;;;;;;;2.30;1.60;;;19.50;99.90;;;;;;5093336;28;20186;-77
2023/09/19 02:45:46;;;;;;;1.80;1.70;;;19.50;99.90;;;;;;5090825;28;20199;-78
2023/09/19 02:48:12;;;;;;;2.47;1.70;;;19.50;99.90;;;;;;5090052;28;20159;-76
2023/09/19 02:50:40;;;;;;;1.77;1.63;;;19.40;99.90;;;;;;5081193;28;20230;-77
2023/09/19 02:53:06;;;;;;;1.97;1.70;;;19.30;99.90;;;;;;5081655;28;20575;-76
2023/09/19 02:55:32;;;;;;;2.00;1.40;;;19.40;99.90;;;;;;5086655;28;20172;-78
2023/09/19 02:57:58;;;;;;;1.47;1.40;;;19.40;99.90;;;;;;5083594;28;20706;-79
2023/09/19 03:00:24;;;;;;;3.23;1.63;;;19.40;99.90;;;;;;5085152;28;20211;-76
2023/09/19 03:02:53;;;;;;;1.43;1.40;;;19.50;99.90;;;;;;5076008;28;20179;-77
2023/09/19 03:05:19;;;;;;;1.30;1.30;;;19.50;99.90;;;;;;5076649;28;20191;-76
2023/09/19 03:07:55;;;;;;;2.37;1.70;;;19.40;99.90;;;;;;5058119;28;20525;-77
2023/09/19 03:10:22;;;;;;;1.50;1.40;;;19.40;99.90;;;;;;5076301;28;20234;-76
2023/09/19 03:12:48;;;;;;;2.53;1.40;;;19.30;99.90;;;;;;5058092;28;20587;-76
2023/09/19 03:15:18;;;;;;;1.80;1.70;;;19.30;99.90;;;;;;5076073;28;20728;-77
2023/09/19 03:17:48;;;;;;;5.00;1.80;;;19.30;99.90;;;;;;5075977;28;20156;-78
2023/09/19 03:20:17;;;;;;;1.33;1.23;;;19.20;99.90;;;;;;5074840;28;20167;-77
2023/09/19 03:22:43;;;;;;;1.20;1.10;;;19.20;99.90;;;;;;5075844;28;20635;-78
2023/09/19 03:25:11;;;;;;;1.30;1.30;;;19.10;99.90;;;;;;5075702;28;20159;-77
2023/09/19 03:27:38;;;;;;;3.23;1.20;;;19.10;99.90;;;;;;5078454;28;20189;-78
2023/09/19 03:30:08;;;;;;;1.73;1.40;;;18.00;99.90;;;;;;5087645;28;20183;-76
2023/09/19 03:32:35;;;;;;;1.30;1.30;;;19.20;99.90;;;;;;5074564;28;20183;-79
2023/09/19 03:35:04;;;;;;;1.70;1.17;;;19.10;99.90;;;;;;5091637;28;20167;-79
2023/09/19 03:37:31;;;;;;;1.37;1.27;;;19.10;99.90;;;;;;5073007;28;20256;-78
2023/09/19 03:39:57;;;;;;;2.63;1.10;;;19.10;99.90;;;;;;5091216;28;20239;-77
2023/09/19 03:42:25;;;;;;;1.17;1.07;;;19.10;99.90;;;;;;5092169;28;20191;-77
2023/09/19 03:44:52;;;;;;;1.37;1.27;;;19.10;99.90;;;;;;5092453;28;20174;-76
2023/09/19 03:47:18;;;;;;;1.43;1.30;;;19.00;99.90;;;;;;5091001;28;20201;-77
2023/09/19 03:49:44;;;;;;;1.70;0.70;;;19.00;99.90;;;;;;5089586;28;20232;-77
2023/09/19 03:52:11;;;;;;;0.90;0.90;;;19.00;99.90;;;;;;5089493;28;20211;-77
2023/09/19 03:54:37;;;;;;;1.20;1.10;;;19.00;99.90;;;;;;5092524;28;20250;-79
2023/09/19 03:57:04;;;;;;;0.90;0.90;;;19.00;99.90;;;;;;5094168;28;20199;-76
2023/09/19 03:59:30;;;;;;;0.93;0.90;;;19.10;99.90;;;;;;5091539;28;20230;-78
2023/09/19 04:01:57;;;;;;;1.07;1.07;;;19.10;99.90;;;;;;5089884;28;20175;-78
2023/09/19 04:04:24;;;;;;;0.97;0.97;;;19.10;99.90;;;;;;5093762;28;20181;-78
2023/09/19 04:06:51;;;;;;;2.30;1.23;;;19.00;99.90;;;;;;5090190;28;20175;-78
2023/09/19 04:09:16;;;;;;;1.67;1.40;;;19.00;99.90;;;;;;5090830;28;20177;-77
2023/09/19 04:11:42;;;;;;;1.60;1.50;;;18.90;99.90;;;;;;5087672;28;20217;-78
2023/09/19 04:14:08;;;;;;;1.17;1.17;;;18.50;99.90;;;;;;5089376;28;20179;-79
2023/09/19 04:16:34;;;;;;;2.03;1.27;;;18.90;99.90;;;;;;5090745;28;20218;-75
2023/09/19 04:18:59;;;;;;;1.10;1.10;;;18.90;99.90;;;;;;5086340;28;20207;-77
2023/09/19 04:21:26;;;;;;;1.00;1.00;;;18.90;99.90;;;;;;5089667;28;20205;-76
2023/09/19 04:23:52;;;;;;;1.53;1.50;;;18.90;99.90;;;;;;5090724;28;20199;-77
2023/09/19 04:26:18;;;;;;;1.17;1.17;;;18.90;99.90;;;;;;5093787;28;20163;-76
2023/09/19 04:28:43;;;;;;;1.13;1.13;;;18.90;99.90;;;;;;5095839;28;20206;-76
2023/09/19 04:31:11;;;;;;;3.30;2.63;;;18.80;99.90;;;;;;5093957;28;20232;-80
2023/09/19 04:33:37;;;;;;;1.90;1.80;;;18.80;99.90;;;;;;5099084;28;20227;-77
2023/09/19 04:36:05;;;;;;;3.20;2.80;;;18.80;99.90;;;;;;5091426;28;20230;-78
2023/09/19 04:38:31;;;;;;;1.80;1.70;;;18.90;99.90;;;;;;5094276;28;20162;-78
2023/09/19 04:40:58;;;;;;;2.03;1.93;;;18.80;99.90;;;;;;5096639;28;20179;-80
2023/09/19 04:43:25;;;;;;;1.30;1.20;;;18.80;99.90;;;;;;5092530;28;20257;-79
2023/09/19 04:45:51;;;;;;;2.00;1.90;;;18.80;99.90;;;;;;5091483;28;20175;-77
2023/09/19 04:48:17;;;;;;;2.07;1.97;;;18.70;99.90;;;;;;5083468;28;20179;-77
2023/09/19 04:50:44;;;;;;;2.63;1.77;;;18.70;99.90;;;;;;5087145;28;20206;-77
2023/09/19 04:53:09;;;;;;;2.30;2.20;;;18.70;99.90;;;;;;5083782;28;20229;-79
2023/09/19 04:55:36;;;;;;;3.17;1.80;;;18.60;99.90;;;;;;5093358;28;20171;-76
2023/09/19 04:58:03;;;;;;;2.10;1.67;;;18.60;99.90;;;;;;5084004;28;20203;-77
2023/09/19 05:00:30;;;;;;;1.77;1.67;;;18.60;99.90;;;;;;5063746;28;20182;-77
2023/09/19 05:02:57;;;;;;;1.67;1.67;;;18.50;99.90;;;;;;5071929;28;20170;-77
2023/09/19 05:05:26;;;;;;;1.63;1.63;;;18.50;99.90;;;;;;5075564;28;20197;-77
2023/09/19 05:07:54;;;;;;;1.57;1.50;;;18.50;99.90;;;;;;5097250;28;20190;-77
2023/09/19 05:10:20;;;;;;;2.63;1.50;;;18.60;99.90;;;;;;5097345;28;20228;-78
2023/09/19 05:12:48;;;;;;;1.40;1.40;;;18.60;99.90;;;;;;5096529;28;20190;-77
2023/09/19 05:15:17;;;;;;;1.23;1.20;;;18.50;99.90;;;;;;5094750;28;20163;-77
2023/09/19 05:17:51;;;;;;;2.33;1.43;;;18.60;99.90;;;;;;5095094;28;20159;-76
2023/09/19 05:20:32;;;;;;;2.17;1.20;;;18.50;99.90;;;;;;5094146;28;20214;-78
2023/09/19 05:23:12;;;;;;;1.53;1.20;;;18.50;99.90;;;;;;5076150;28;20249;-78
2023/09/19 05:25:39;;;;;;;1.37;1.27;;;18.40;99.90;;;;;;5075792;28;20158;-76
2023/09/19 05:28:15;;;;;;;2.67;1.47;;;18.40;99.90;;;;;;5083644;28;20258;-77
2023/09/19 05:30:43;;;;;;;2.13;1.27;;;18.40;99.90;;;;;;5076630;28;20578;-78
2023/09/19 05:33:09;;;;;;;1.50;1.40;;;18.50;99.90;;;;;;5075494;28;20347;-78
2023/09/19 05:35:37;;;;;;;2.23;1.50;;;18.40;99.90;;;;;;5075229;28;20227;-77
2023/09/19 05:38:05;;;;;;;1.60;1.43;;;18.50;99.90;;;;;;5075953;28;20171;-78
2023/09/19 05:40:31;;;;;;;2.03;1.87;;;18.50;99.90;;;;;;5058588;28;20217;-79
2023/09/19 05:42:57;;;;;;;1.20;1.20;;;18.60;99.90;;;;;;5081849;28;20208;-78
2023/09/19 05:45:23;;;;;;;1.30;1.20;;;18.50;99.90;;;;;;5093354;28;20167;-78
2023/09/19 05:47:51;;;;;;;1.23;1.23;;;18.60;99.90;;;;;;5078246;28;20175;-77
2023/09/19 05:50:18;;;;;;;2.93;1.63;;;18.50;99.90;;;;;;5090239;28;20179;-76
2023/09/19 05:52:52;;;;;;;1.53;1.50;;;18.60;99.90;;;;;;5095489;28;20171;-77
2023/09/19 05:55:18;;;;;;;1.60;1.50;;;18.60;99.90;;;;;;5097029;28;20687;-78
2023/09/19 05:57:49;;;;;;;1.63;1.57;;;18.60;99.90;;;;;;5097405;28;20626;-76
2023/09/19 06:00:17;;;;;;;3.07;1.60;;;18.60;99.90;;;;;;5096049;28;20170;-78
2023/09/19 06:02:44;;;;;;;1.77;1.60;;;18.60;99.90;;;;;;5095076;28;20169;-77
2023/09/19 06:05:10;;;;;;;1.63;1.53;;;18.70;99.90;;;;;;5076510;28;20183;-76
2023/09/19 06:07:37;;;;;;;2.70;1.73;;;18.70;99.90;;;;;;5095295;28;20173;-75
2023/09/19 06:10:08;;;;;;;2.30;1.80;;;18.80;99.90;;;;;;5094433;28;20213;-78
2023/09/19 06:12:37;;;;;;;2.03;1.93;;;18.90;99.90;;;;;;5094450;28;20223;-77
2023/09/19 06:15:15;;;;;;;2.40;1.80;;;18.80;99.90;;;;;;5094391;28;20174;-78
2023/09/19 06:17:48;;;;;;;3.17;1.90;;;18.70;99.90;;;;;;5094344;28;20161;-78
2023/09/19 06:20:15;;;;;;;3.70;1.90;;;18.70;99.90;;;;;;5102370;28;20196;-77
2023/09/19 06:22:45;;;;;;;2.73;2.00;;;18.70;99.90;;;;;;5104899;28;20190;-78
2023/09/19 06:25:12;;;;;;;3.33;1.90;;;18.70;99.90;;;;;;5080301;28;20679;-78
2023/09/19 06:27:42;;;;;;;2.93;2.20;;;18.80;99.90;;;;;;5094546;28;20178;-78
2023/09/19 06:30:09;;;;;;;3.10;2.90;;;18.80;99.90;;;;;;5094943;28;20641;-78
2023/09/19 06:32:35;;;;;;;4.10;2.60;;;18.60;99.90;;;;;;5094544;28;20190;-77
2023/09/19 06:35:02;;;;;;;3.80;2.40;;;18.60;99.90;;;;;;5095376;28;20254;-78
2023/09/19 06:37:29;;;;;;;2.87;2.30;;;18.70;99.90;;;;;;5096137;28;20705;-76
2023/09/19 06:39:55;;;;;;;3.83;2.30;;;18.70;99.90;;;;;;5096657;28;20705;-78
2023/09/19 06:42:22;;;;;;;2.50;2.20;;;18.60;99.90;;;;;;5096617;28;20166;-77
2023/09/19 06:44:49;;;;;;;3.33;2.30;;;18.70;99.90;;;;;;5105422;28;20155;-78
2023/09/19 06:47:16;;;;;;;2.13;2.03;;;18.70;99.90;;;;;;5109848;28;20238;-78
2023/09/19 06:49:45;;;;;;;2.80;2.00;;;18.70;99.90;;;;;;5091800;28;20171;-78
2023/09/19 06:52:11;;;;;;;3.10;2.30;;;18.70;99.90;;;;;;5097420;28;20566;-78
2023/09/19 06:54:37;;;;;;;4.60;2.37;;;18.70;99.90;;;;;;5099619;28;20201;-78
2023/09/19 06:57:03;;;;;;;2.90;2.30;;;18.90;99.90;;;;;;5106054;28;20207;-78
2023/09/19 06:59:29;;;;;;;3.27;2.43;;;18.90;99.90;;;;;;5111433;28;20270;-77
2023/09/19 07:01:55;;;;;;;4.37;3.13;;;19.00;99.90;;;;;;5102513;28;20261;-78
2023/09/19 07:04:20;;;;;;;2.93;2.40;;;19.10;99.90;;;;;;5099864;28;20182;-78
2023/09/19 07:06:50;;;;;;;3.07;2.20;;;19.10;99.90;;;;;;5098339;28;20175;-78
2023/09/19 07:09:16;;;;;;;3.13;2.00;;;19.20;99.90;;;;;;5098429;28;20185;-79
2023/09/19 07:11:42;;;;;;;2.20;2.10;;;19.30;99.90;;;;;;5097810;28;20240;-78
2023/09/19 07:14:11;;;;;;;3.40;3.10;;;19.40;99.90;;;;;;5097906;28;20175;-78
2023/09/19 07:16:38;;;;;;;2.50;2.13;;;19.40;99.90;;;;;;5103262;28;20179;-78
2023/09/19 07:19:04;;;;;;;6.07;3.60;;;19.40;99.90;;;;;;5149316;22;20309;-77
2023/09/19 07:21:32;;;;;;;2.67;2.40;;;19.40;99.90;;;;;;5094760;28;20528;-79
2023/09/19 07:24:00;;;;;;;3.20;2.20;;;19.40;99.90;;;;;;5111443;28;20178;-78
2023/09/19 07:26:45;;;;;;;2.60;2.10;;;19.40;99.90;;;;;;5098591;28;20174;-78
2023/09/19 07:29:10;;;;;;;5.80;2.03;;;19.30;99.90;;;;;;5083875;28;20175;-79
2023/09/19 07:31:36;;;;;;;3.17;2.30;;;19.20;99.90;;;;;;5088232;28;20198;-78
2023/09/19 07:34:03;;;;;;;2.80;1.83;;;19.20;99.90;;;;;;5113841;28;20197;-80
2023/09/19 07:36:30;;;;;;;2.30;2.00;;;19.20;99.90;;;;;;5112960;28;20198;-79
2023/09/19 07:38:57;;;;;;;3.10;2.00;;;19.10;99.90;;;;;;5115129;28;20679;-78
2023/09/19 07:41:25;;;;;;;3.00;2.80;;;19.10;99.90;;;;;;5102471;28;20238;-79
2023/09/19 07:43:51;;;;;;;5.83;2.13;;;19.10;99.90;;;;;;5082629;28;20178;-78
2023/09/19 07:46:17;;;;;;;3.13;2.13;;;19.10;99.90;;;;;;5082702;28;20178;-77
2023/09/19 07:48:47;;;;;;;3.00;2.00;;;19.20;99.90;;;;;;5100283;28;20170;-76
2023/09/19 07:51:15;;;;;;;3.47;2.10;;;19.30;99.90;;;;;;5097174;28;20190;-76
2023/09/19 07:53:42;;;;;;;2.57;2.03;;;19.20;99.90;;;;;;5097377;28;20169;-78
2023/09/19 07:56:09;;;;;;;4.53;2.00;;;19.30;99.90;;;;;;5097277;28;20175;-78
2023/09/19 07:58:37;;;;;;;3.20;1.77;;;19.40;99.90;;;;;;5099386;28;20170;-79
2023/09/19 08:01:04;;;;;;;2.03;1.93;;;19.40;99.90;;;;;;5096879;28;20167;-78
2023/09/19 08:03:30;;;;;;;2.23;2.00;;;19.50;99.90;;;;;;5096611;28;20166;-78
2023/09/19 08:06:00;;;;;;;4.77;2.30;;;19.50;99.90;;;;;;5077613;28;20174;-78
2023/09/19 08:08:27;;;;;;;2.00;1.80;;;19.70;99.90;;;;;;5096965;28;20166;-78
2023/09/19 08:10:55;;;;;;;4.30;2.10;;;19.80;99.90;;;;;;5096707;28;20230;-77
2023/09/19 08:13:25;;;;;;;2.83;2.30;;;19.90;99.90;;;;;;5096276;28;20176;-79
2023/09/19 08:15:54;;;;;;;2.20;2.10;;;19.90;99.90;;;;;;5096572;28;20217;-78
2023/09/19 08:18:22;;;;;;;4.03;2.47;;;20.00;99.90;;;;;;5097890;28;20166;-78
2023/09/19 08:20:52;;;;;;;4.93;2.47;;;19.90;99.90;;;;;;5097756;28;20246;-78
2023/09/19 08:23:20;;;;;;;7.10;2.23;;;20.00;99.90;;;;;;5079230;28;20175;-78
2023/09/19 08:25:48;;;;;;;5.37;2.23;;;19.90;99.90;;;;;;5100102;28;20529;-78
2023/09/19 08:28:18;;;;;;;2.73;2.00;;;19.90;99.90;;;;;;5103865;28;20169;-76
2023/09/19 08:30:47;;;;;;;2.47;2.00;;;19.80;99.90;;;;;;5099708;28;20293;-78
2023/09/19 08:33:15;;;;;;;2.37;2.00;;;19.80;99.90;;;;;;5096167;28;20640;-79
2023/09/19 08:35:43;;;;;;;2.93;2.23;;;19.90;99.90;;;;;;5105633;28;20167;-80
2023/09/19 08:38:11;;;;;;;2.03;1.93;;;19.90;99.90;;;;;;5100237;28;20159;-78
2023/09/19 08:40:40;;;;;;;2.53;2.20;;;20.00;99.90;;;;;;5077752;28;20206;-78
2023/09/19 08:43:07;;;;;;;2.20;2.00;;;20.00;99.90;;;;;;5096440;28;20166;-78
2023/09/19 08:45:34;;;;;;;3.17;2.30;;;20.20;99.90;;;;;;5096779;28;20194;-79
2023/09/19 08:48:28;;;;;;;2.53;2.13;;;20.20;99.90;;;;;;5098208;28;20194;-78
2023/09/19 08:51:01;;;;;;;2.97;2.47;;;20.20;99.90;;;;;;5099576;28;20198;-78
2023/09/19 08:53:51;;;;;;;4.57;2.30;;;20.40;99.90;;;;;;5087834;28;20175;-78
2023/09/19 08:56:19;;;;;;;2.33;2.13;;;20.60;99.90;;;;;;5104924;28;20178;-77
2023/09/19 08:58:53;;;;;;;2.20;1.90;;;20.70;99.90;;;;;;5096858;28;20198;-80
2023/09/19 09:01:24;;;;;;;3.30;2.00;;;20.80;99.90;;;;;;5098336;28;20158;-78
2023/09/19 09:03:53;;;;;;;2.40;2.20;;;20.80;99.90;;;;;;5106289;28;20166;-77
2023/09/19 09:06:23;;;;;;;2.33;2.13;;;20.90;99.90;;;;;;5096696;28;20181;-78
2023/09/19 09:08:50;;;;;;;1.93;1.83;;;21.00;99.90;;;;;;5097671;28;20163;-80
2023/09/19 09:11:19;;;;;;;1.87;1.77;;;21.20;99.90;;;;;;5104163;28;20193;-79
2023/09/19 09:13:46;;;;;;;2.97;2.20;;;21.40;99.90;;;;;;5109288;28;20209;-78
2023/09/19 09:16:13;;;;;;;1.97;1.83;;;21.60;99.90;;;;;;5076817;28;20174;-79
2023/09/19 09:18:40;;;;;;;1.93;1.70;;;21.80;99.90;;;;;;5093989;28;20248;-79
2023/09/19 09:21:06;;;;;;;1.87;1.70;;;21.90;99.90;;;;;;5096293;28;20159;-78
2023/09/19 09:23:32;;;;;;;1.80;1.70;;;21.90;99.90;;;;;;5101733;28;20680;-78
2023/09/19 09:26:02;;;;;;;2.00;1.80;;;21.90;99.90;;;;;;5095658;28;20532;-79
2023/09/19 09:28:30;;;;;;;2.17;2.07;;;21.80;99.90;;;;;;5095517;28;20165;-78
2023/09/19 09:31:02;;;;;;;3.03;1.80;;;21.60;99.90;;;;;;5094712;28;20202;-78
2023/09/19 09:33:28;;;;;;;3.53;1.90;;;21.50;99.90;;;;;;5094309;28;20178;-78
2023/09/19 09:36:02;;;;;;;2.10;1.83;;;21.60;99.90;;;;;;5094682;28;20184;-80
2023/09/19 09:38:43;;;;;;;2.03;1.93;;;21.70;99.90;;;;;;5077446;28;20683;-79
2023/09/19 09:41:09;;;;;;;1.60;1.60;;;21.80;99.90;;;;;;5099247;28;20172;-79
2023/09/19 09:43:41;;;;;;;3.53;2.00;;;22.10;99.90;;;;;;5099646;28;20212;-79
2023/09/19 09:49:15;;;;;;;2.40;2.20;;;22.00;99.90;;;;;;5095012;28;20162;-78
2023/09/19 09:51:45;;;;;;;2.73;2.00;;;21.80;99.90;;;;;;5076332;28;20614;-79
2023/09/19 09:54:16;;;;;;;3.00;1.80;;;21.80;99.90;;;;;;5094184;28;20162;-79
2023/09/19 09:57:01;;;;;;;5.10;2.47;;;21.80;99.90;;;;;;5093840;28;20542;-79
2023/09/19 09:59:50;;;;;;;2.30;2.10;;;21.70;99.90;;;;;;5094855;28;20202;-78
2023/09/19 10:02:24;;;;;;;2.00;1.90;;;21.70;99.90;;;;;;5095327;28;20151;-79
2023/09/19 10:04:51;;;;;;;1.90;1.80;;;21.70;99.90;;;;;;5107370;28;20224;-78
2023/09/19 10:07:42;;;;;;;2.37;2.07;;;21.60;99.90;;;;;;5102226;28;20526;-78
2023/09/19 10:10:28;;;;;;;3.07;1.60;;;21.40;99.90;;;;;;5094334;28;20205;-78
2023/09/19 10:13:02;;;;;;;2.53;2.03;;;21.40;99.90;;;;;;5089533;28;20189;-78
2023/09/19 10:15:32;;;;;;;3.10;1.53;;;21.50;99.90;;;;;;5094647;28;20200;-78
2023/09/19 10:18:03;;;;;;;1.70;1.60;;;21.70;99.90;;;;;;5094358;28;20175;-78
2023/09/19 10:22:57;;;;;;;1.60;1.50;;;21.90;99.90;;;;;;5094384;28;20174;-78
2023/09/19 10:25:30;;;;;;;2.00;1.77;;;21.80;99.90;;;;;;5076652;28;20233;-78
2023/09/19 10:28:10;;;;;;;1.80;1.70;;;21.80;99.90;;;;;;5095642;28;20183;-78
2023/09/19 10:30:43;;;;;;;1.60;1.50;;;21.80;99.90;;;;;;5098650;28;20154;-78
2023/09/19 10:33:09;;;;;;;1.70;1.60;;;21.80;99.90;;;;;;5079721;28;20634;-78
2023/09/19 10:35:42;;;;;;;1.60;1.50;;;21.90;99.90;;;;;;5098154;28;20177;-79
2023/09/19 10:38:10;;;;;;;1.70;1.60;;;22.00;99.90;;;;;;5109776;28;20230;-78
2023/09/19 10:40:42;;;;;;;1.80;1.50;;;22.10;99.90;;;;;;5105402;28;20262;-79
2023/09/19 10:43:18;;;;;;;1.83;1.60;;;22.10;99.90;;;;;;5080572;28;20185;-77
2023/09/19 10:45:46;;;;;;;1.40;1.30;;;22.20;99.90;;;;;;5098724;28;20602;-77
2023/09/19 10:48:12;;;;;;;1.27;1.27;;;22.30;99.90;;;;;;5100112;28;20181;-79
2023/09/19 10:51:11;;;;;;;2.20;1.47;;;22.50;99.90;;;;;;5115631;28;20182;-78
2023/09/19 10:53:51;;;;;;;1.60;1.50;;;22.60;99.90;;;;;;5099647;28;20167;-79
2023/09/19 10:56:27;;;;;;;1.40;1.30;;;22.70;99.90;;;;;;5098953;28;20162;-79
2023/09/19 10:59:10;;;;;;;1.70;1.30;;;22.70;99.90;;;;;;5109256;28;20171;-78
2023/09/19 11:01:56;;;;;;;1.40;1.07;;;22.70;99.90;;;;;;5104286;28;20159;-78
2023/09/19 11:04:33;;;;;;;3.07;1.60;;;22.60;99.90;;;;;;5102196;28;20181;-79
2023/09/19 11:07:15;;;;;;;1.40;1.30;;;22.60;99.90;;;;;;5101258;28;20159;-82
2023/09/19 11:09:53;;;;;;;3.40;1.33;;;22.50;99.90;;;;;;5098797;28;20158;-79
2023/09/19 11:12:31;;;;;;;2.23;1.43;;;22.30;99.90;;;;;;5099673;28;20202;-78
2023/09/19 11:14:58;;;;;;;1.90;1.40;;;22.30;99.90;;;;;;5081505;28;20645;-77
2023/09/19 11:17:32;;;;;;;2.00;1.40;;;22.40;99.90;;;;;;5099220;28;20224;-78
2023/09/19 11:20:15;;;;;;;1.40;1.30;;;22.30;99.90;;;;;;5096446;28;20230;-78
2023/09/19 11:22:53;;;;;;;2.00;1.60;;;22.30;99.90;;;;;;5096693;28;20514;-81
2023/09/19 11:25:33;;;;;;;1.70;1.60;;;22.40;99.90;;;;;;5096951;28;20159;-80
2023/09/19 11:28:18;;;;;;;1.53;1.43;;;22.50;99.90;;;;;;5096788;28;20162;-81
2023/09/19 11:30:55;;;;;;;1.17;1.17;;;22.60;99.90;;;;;;5098358;28;20194;-80
2023/09/19 11:33:28;;;;;;;1.40;1.40;;;22.60;99.90;;;;;;5087562;28;20197;-79
2023/09/19 11:36:24;;;;;;;1.37;1.27;;;22.60;99.90;;;;;;5098155;28;20562;-81
2023/09/19 11:38:50;;;;;;;1.07;1.07;;;22.60;99.90;;;;;;5097602;28;20165;-81
2023/09/19 11:41:31;;;;;;;1.00;1.00;;;22.60;99.90;;;;;;5095956;28;20250;-80
2023/09/19 11:44:05;;;;;;;1.02;1.00;;;22.60;99.90;;;;;;5097654;28;20165;-80
2023/09/19 11:46:33;;;;;;;1.17;1.08;;;22.70;99.90;;;;;;5103781;28;20517;-81
2023/09/19 11:49:12;;;;;;;1.08;1.08;;;22.90;99.90;;;;;;5107974;28;20171;-82
2023/09/19 11:51:44;;;;;;;1.10;1.10;;;23.00;99.90;;;;;;5105332;28;20552;-79
2023/09/19 11:54:21;;;;;;;1.42;1.30;;;23.20;99.90;;;;;;5079392;28;20638;-80
2023/09/19 11:56:56;;;;;;;1.10;1.10;;;23.20;99.90;;;;;;5078574;28;20614;-79
2023/09/19 11:59:28;;;;;;;1.10;1.10;;;23.20;99.90;;;;;;5096535;28;20189;-81
2023/09/19 12:02:21;;;;;;;1.85;1.20;;;23.10;99.90;;;;;;5077958;28;20522;-80
2023/09/19 12:04:48;;;;;;;1.15;1.15;;;23.10;99.90;;;;;;5096111;28;20170;-80
2023/09/19 12:07:16;;;;;;;1.20;1.10;;;23.10;99.90;;;;;;5095797;28;20163;-81
2023/09/19 12:09:44;;;;;;;1.30;1.20;;;23.20;99.90;;;;;;5095943;28;20514;-82
2023/09/19 12:12:19;;;;;;;1.30;1.30;;;23.10;99.90;;;;;;5095586;28;20677;-81
2023/09/19 12:14:51;;;;;;;1.15;1.15;;;23.20;99.90;;;;;;5095692;28;20166;-82
2023/09/19 12:17:24;;;;;;;1.75;1.20;;;23.20;99.90;;;;;;5115318;28;20162;-80
2023/09/19 12:19:53;;;;;;;2.08;1.45;;;23.10;99.90;;;;;;5096585;28;20241;-80
2023/09/19 12:22:20;;;;;;;2.38;1.10;;;23.10;99.90;;;;;;5096374;28;20585;-79
2023/09/19 12:24:46;;;;;;;1.10;1.10;;;23.10;99.90;;;;;;5096329;28;20177;-79
2023/09/19 12:27:13;;;;;;;1.23;1.13;;;23.20;99.90;;;;;;5110557;28;20187;-80
2023/09/19 12:29:48;;;;;;;1.27;1.27;;;23.20;99.90;;;;;;5095155;28;20174;-81
2023/09/19 12:32:16;;;;;;;1.33;1.33;;;23.10;99.90;;;;;;5101582;28;20237;-81
2023/09/19 12:34:51;;;;;;;1.40;1.17;;;22.80;99.90;;;;;;5086443;28;20216;-81
2023/09/19 12:37:22;;;;;;;1.92;1.60;;;23.10;99.90;;;;;;5078312;28;20198;-79
2023/09/19 12:39:53;;;;;;;1.50;1.50;;;23.20;99.90;;;;;;5095943;28;20225;-80
2023/09/19 12:42:31;;;;;;;1.50;1.23;;;23.20;99.90;;;;;;5076842;28;20179;-80
2023/09/19 12:45:00;;;;;;;1.55;1.45;;;23.30;99.90;;;;;;5076943;28;20169;-79
2023/09/19 12:47:28;;;;;;;2.20;1.00;;;23.50;99.90;;;;;;5077265;28;20173;-81
2023/09/19 12:50:19;;;;;;;1.30;1.30;;;23.70;99.90;;;;;;5095072;28;20168;-79
2023/09/19 12:52:48;;;;;;;1.67;1.58;;;23.90;99.90;;;;;;5094698;28;20708;-79
2023/09/19 12:55:26;;;;;;;1.73;1.63;;;24.10;99.90;;;;;;5095850;28;20174;-79
2023/09/19 12:58:09;;;;;;;1.52;1.42;;;24.20;99.90;;;;;;5095964;28;20170;-78
2023/09/19 13:00:41;;;;;;;1.85;1.40;;;24.40;99.90;;;;;;5104579;28;20150;-79
2023/09/19 13:03:34;;;;;;;1.75;1.60;;;24.60;99.90;;;;;;5103226;28;20166;-79
2023/09/19 13:06:03;;;;;;;1.08;1.05;;;24.60;99.90;;;;;;5112573;28;20155;-79
2023/09/19 13:08:41;;;;;;;1.05;1.05;;;24.70;99.90;;;;;;5079295;28;20591;-79
2023/09/19 13:11:13;;;;;;;1.33;1.00;;;24.80;99.90;;;;;;5095308;28;20734;-79